Pagrindinis puslapis
METAR-TAF:

METAR-TAF

Oro uostai :

Šanchajaus Pudongo tarptautinis oro uostas

Šanchajus-Pudong, Kinija

platuma: 31-07N, ilguma: 121-46E, Aukštis: 4 m

Dabartinis oras

Ataskaita buvo paskelbta 32 minutes, ne 13:30 UTC
Vėjas 6 kt iš Šiaurės
Temperatūra 4°C
Drėgmė 70%
Slėgis 1033 hPa
Matomumas 10 km arba daugiau
nėra debesų žemiau 1500 m ir nėra kamuolinių lietaus debesų

METAR: ZSPD 071330Z 01003MPS CAVOK 04/M01 Q1033 NOSIG

Laikas: 22:02 (14:02 UTC)

Prognozė

Ataskaita buvo paskelbta 4 valandos ir 52 minutes, ne 09:10 UTC
Prognozė galioja nuo 07 metu 12 UTC su 08 metu 12 UTC
Vėjas 8 kt iš Šiaurės
Matomumas: 5000 m
Išsisklaidę debesys ne aukštis 2000 ft
rūkana

TAF: ZSPD 070910Z 0712/0812 35004MPS 5000 BR SCT020 TX12/0806Z TN03/0721Z

Orai ataskaitas ir orų prognozės (METAR, TAF).

turimą stotys yra geltonos ir raudonos taškus žemėlapyje.

Perkelti pele per norėdami pamatyti stoties vardą.

Tada spustelėkite, norėdami matyti oro stebėjimo ir prognozės.

Norėdami pakeisti žemėlapį: spustelėkite ant žalios mygtukų su juodo kryžiaus žemyn,; žalią mygtuką su brūkšneliu, jei norite nutolinti; arba žalių rodyklių gretimoms žemėlapius.


METAR-TAF: